createdAt,value
2019-04-20T00:01:48.354Z,2.47
2019-04-20T00:04:24.733Z,2.97
2019-04-20T00:06:55.774Z,3.53
2019-04-20T00:09:32.802Z,3.20
2019-04-20T00:12:10.855Z,3.17
2019-04-20T00:14:38.872Z,3.33
2019-04-20T00:17:11.569Z,3.50
2019-04-20T00:19:47.571Z,4.20
2019-04-20T00:22:39.296Z,3.77
2019-04-20T00:25:46.173Z,4.20
2019-04-20T00:28:26.546Z,4.00
2019-04-20T00:31:04.664Z,4.30
2019-04-20T00:33:27.296Z,4.00
2019-04-20T00:35:48.434Z,4.20
2019-04-20T00:38:21.523Z,4.17
2019-04-20T00:41:01.941Z,4.20
2019-04-20T00:43:32.826Z,4.20
2019-04-20T00:46:09.137Z,4.30
2019-04-20T00:48:47.507Z,4.13
2019-04-20T00:53:48.960Z,4.50
2019-04-20T00:56:20.246Z,4.10
2019-04-20T00:59:05.789Z,4.30
2019-04-20T01:01:47.493Z,4.40
2019-04-20T01:04:20.532Z,4.10
2019-04-20T01:07:14.096Z,4.70
2019-04-20T01:10:05.013Z,4.30
2019-04-20T01:12:40.478Z,4.13
2019-04-20T01:15:23.659Z,4.23
2019-04-20T01:17:46.394Z,4.80
2019-04-20T01:20:19.341Z,4.57
2019-04-20T01:22:59.364Z,4.60
2019-04-20T01:25:31.737Z,4.13
2019-04-20T01:28:14.779Z,4.60
2019-04-20T01:30:39.771Z,4.60
2019-04-20T01:33:22.877Z,3.90
2019-04-20T01:35:56.924Z,4.43
2019-04-20T01:38:32.549Z,5.10
2019-04-20T01:40:48.448Z,4.17
2019-04-20T01:43:20.622Z,4.03
2019-04-20T01:46:01.344Z,4.17
2019-04-20T01:48:30.478Z,4.67
2019-04-20T01:51:07.373Z,4.30
2019-04-20T01:53:50.353Z,4.43
2019-04-20T01:56:30.265Z,4.53
2019-04-20T01:59:16.476Z,4.77
2019-04-20T02:01:59.442Z,4.17
2019-04-20T02:04:38.405Z,4.87
2019-04-20T02:07:08.687Z,4.73
2019-04-20T02:09:48.491Z,4.67
2019-04-20T02:12:20.298Z,4.17
2019-04-20T02:14:53.655Z,4.33
2019-04-20T02:17:33.084Z,5.10
2019-04-20T02:20:15.696Z,5.10
2019-04-20T02:22:46.546Z,5.10
2019-04-20T02:25:03.909Z,4.60
2019-04-20T02:27:43.255Z,4.60
2019-04-20T02:33:32.256Z,5.50
2019-04-20T02:44:19.847Z,4.20
2019-04-20T02:46:46.938Z,4.70
2019-04-20T02:51:52.706Z,4.87
2019-04-20T02:57:05.292Z,4.50
2019-04-20T02:59:57.525Z,4.30
2019-04-20T03:01:55.324Z,4.57
2019-04-20T03:04:23.358Z,4.67
2019-04-20T03:06:59.787Z,4.43
2019-04-20T03:09:39.643Z,4.70
2019-04-20T03:12:16.822Z,4.77
2019-04-20T03:14:39.268Z,4.63
2019-04-20T03:17:21.388Z,4.57
2019-04-20T03:19:48.681Z,5.40
2019-04-20T03:22:46.074Z,4.87
2019-04-20T03:25:06.185Z,4.80
2019-04-20T03:27:51.659Z,5.07
2019-04-20T03:33:31.526Z,4.87
2019-04-20T03:36:00.364Z,4.90
2019-04-20T03:38:23.085Z,4.67
2019-04-20T03:40:50.688Z,4.77
2019-04-20T03:43:11.847Z,4.70
2019-04-20T03:45:51.753Z,4.50
2019-04-20T03:48:37.053Z,5.40
2019-04-20T03:51:17.054Z,4.70
2019-04-20T03:54:05.427Z,5.30
2019-04-20T03:56:43.925Z,5.13
2019-04-20T03:59:32.282Z,5.53
2019-04-20T04:02:29.825Z,4.93
2019-04-20T04:05:07.268Z,5.00
2019-04-20T04:07:26.563Z,5.43
2019-04-20T04:10:09.790Z,5.10
2019-04-20T04:13:11.763Z,4.67
2019-04-20T04:15:51.905Z,4.37
2019-04-20T04:18:31.146Z,4.50
2019-04-20T04:21:02.853Z,4.83
2019-04-20T04:23:44.537Z,5.17
2019-04-20T04:26:24.639Z,5.30
2019-04-20T04:28:55.475Z,4.80
2019-04-20T04:31:33.605Z,5.10
2019-04-20T04:34:04.847Z,5.23
2019-04-20T04:36:37.603Z,4.80
2019-04-20T04:39:15.480Z,5.67
2019-04-20T04:41:56.037Z,5.33
2019-04-20T04:44:15.132Z,5.33
2019-04-20T04:46:44.674Z,5.70
2019-04-20T04:49:20.840Z,5.30
2019-04-20T04:51:51.991Z,5.57
2019-04-20T04:54:31.628Z,5.67
2019-04-20T04:56:52.601Z,5.37
2019-04-20T04:59:25.713Z,4.87
2019-04-20T05:01:58.775Z,5.33
2019-04-20T05:05:11.742Z,4.93
2019-04-20T05:07:40.075Z,5.17
2019-04-20T05:10:01.202Z,5.13
2019-04-20T05:12:36.753Z,5.67
2019-04-20T05:15:22.691Z,5.10
2019-04-20T05:18:09.859Z,5.60
2019-04-20T05:20:41.571Z,5.20
2019-04-20T05:23:35.169Z,5.60
2019-04-20T05:26:44.791Z,5.50
2019-04-20T05:29:06.691Z,5.20
2019-04-20T05:31:39.680Z,4.77
2019-04-20T05:34:26.312Z,5.10
2019-04-20T05:36:57.830Z,5.37
2019-04-20T05:39:32.623Z,5.40
2019-04-20T05:42:03.381Z,5.27
2019-04-20T05:44:46.069Z,4.97
2019-04-20T05:47:16.899Z,5.03
2019-04-20T05:49:50.119Z,5.13
2019-04-20T05:55:04.139Z,5.20
2019-04-20T05:57:36.226Z,5.97
2019-04-20T06:00:14.174Z,4.70
2019-04-20T06:02:46.310Z,5.10
2019-04-20T06:05:25.263Z,5.00
2019-04-20T06:07:56.292Z,5.43
2019-04-20T06:10:32.514Z,5.50
2019-04-20T06:13:01.572Z,5.50
2019-04-20T06:16:01.009Z,5.40
2019-04-20T06:18:45.130Z,5.80
2019-04-20T06:24:15.648Z,5.00
2019-04-20T06:26:53.575Z,5.53
2019-04-20T06:29:19.379Z,5.37
2019-04-20T06:31:59.233Z,4.57
2019-04-20T06:37:12.545Z,5.20
2019-04-20T06:39:48.414Z,5.23
2019-04-20T06:42:29.004Z,4.40
2019-04-20T06:44:48.397Z,4.87
2019-04-20T06:47:29.340Z,5.37
2019-04-20T06:50:03.479Z,4.63
2019-04-20T06:52:49.171Z,4.93
2019-04-20T06:55:35.017Z,4.60
2019-04-20T06:58:01.513Z,4.27
2019-04-20T07:00:30.568Z,4.60
2019-04-20T07:03:07.759Z,4.83
2019-04-20T07:05:45.785Z,4.60
2019-04-20T07:08:37.327Z,5.13
2019-04-20T07:11:02.143Z,4.40
2019-04-20T07:13:17.798Z,4.50
2019-04-20T07:16:21.561Z,5.03
2019-04-20T07:19:07.882Z,4.70
2019-04-20T07:22:18.525Z,4.93
2019-04-20T07:24:53.174Z,4.60
2019-04-20T07:27:19.680Z,4.70
2019-04-20T07:30:07.833Z,5.03
2019-04-20T07:32:22.677Z,5.10
2019-04-20T07:35:03.773Z,5.07
2019-04-20T07:38:11.506Z,4.97
2019-04-20T07:40:24.423Z,4.93
2019-04-20T07:43:03.085Z,5.07
2019-04-20T07:45:30.814Z,4.70
2019-04-20T07:48:06.190Z,5.43
2019-04-20T07:50:32.125Z,4.77
2019-04-20T07:53:01.501Z,4.30
2019-04-20T07:55:52.164Z,4.67
2019-04-20T07:58:13.371Z,4.67
2019-04-20T08:01:05.902Z,4.57
2019-04-20T08:03:50.514Z,4.20
2019-04-20T08:06:16.491Z,4.70
2019-04-20T08:08:57.407Z,4.73
2019-04-20T08:11:44.762Z,4.67
2019-04-20T08:14:22.725Z,4.23
2019-04-20T08:17:05.396Z,4.50
2019-04-20T08:19:16.418Z,4.27
2019-04-20T08:21:55.134Z,4.80
2019-04-20T08:24:27.803Z,4.37
2019-04-20T08:26:51.904Z,4.40
2019-04-20T08:29:47.485Z,4.50
2019-04-20T08:32:51.503Z,4.93
2019-04-20T08:35:32.091Z,4.50
2019-04-20T08:38:32.546Z,4.60
2019-04-20T08:40:43.579Z,5.10
2019-04-20T08:43:29.970Z,4.47
2019-04-20T08:46:00.281Z,4.33
2019-04-20T08:48:34.522Z,4.63
2019-04-20T08:51:07.398Z,4.70
2019-04-20T08:53:43.052Z,4.63
2019-04-20T08:56:10.851Z,4.67
2019-04-20T08:58:31.569Z,4.97
2019-04-20T09:01:08.333Z,4.73
2019-04-20T09:03:53.109Z,5.07
2019-04-20T09:06:29.243Z,4.90
2019-04-20T09:08:59.663Z,5.07
2019-04-20T09:11:44.154Z,4.73
2019-04-20T09:14:01.786Z,5.10
2019-04-20T09:16:38.797Z,5.30
2019-04-20T09:19:12.565Z,5.20
2019-04-20T09:21:49.133Z,5.37
2019-04-20T09:24:36.153Z,5.47
2019-04-20T09:27:04.551Z,5.80
2019-04-20T09:29:32.895Z,5.20
2019-04-20T09:32:26.258Z,5.97
2019-04-20T09:35:03.130Z,4.87
2019-04-20T09:37:45.905Z,4.83
2019-04-20T09:40:28.195Z,6.07
2019-04-20T09:42:58.259Z,5.90
2019-04-20T09:45:55.548Z,5.77
2019-04-20T09:48:34.696Z,5.57
2019-04-20T09:51:20.359Z,5.87
2019-04-20T09:53:46.293Z,5.47
2019-04-20T09:56:23.995Z,5.50
2019-04-20T09:59:03.750Z,5.27
2019-04-20T10:01:30.340Z,5.23
2019-04-20T10:03:51.218Z,4.60
2019-04-20T10:06:27.250Z,5.47
2019-04-20T10:09:00.433Z,5.10
2019-04-20T10:11:32.023Z,5.57
2019-04-20T10:14:06.247Z,5.83
2019-04-20T10:16:38.351Z,5.47
2019-04-20T10:19:11.982Z,5.50
2019-04-20T10:21:45.716Z,5.60
2019-04-20T10:24:18.859Z,6.07
2019-04-20T10:26:52.484Z,4.80
2019-04-20T10:29:25.804Z,6.13
2019-04-20T10:32:00.694Z,5.33
2019-04-20T10:34:32.729Z,5.77
2019-04-20T10:37:24.092Z,5.33
2019-04-20T10:39:56.551Z,5.53
2019-04-20T10:42:30.113Z,5.50
2019-04-20T10:45:03.914Z,5.53
2019-04-20T10:47:37.130Z,4.57
2019-04-20T10:50:09.620Z,4.87
2019-04-20T10:52:42.083Z,4.87
2019-04-20T10:55:14.860Z,5.10
2019-04-20T10:57:47.606Z,5.37
2019-04-20T11:00:25.757Z,5.90
2019-04-20T11:02:59.617Z,5.10
2019-04-20T11:05:33.235Z,4.80
2019-04-20T11:08:06.487Z,5.03
2019-04-20T11:10:55.351Z,5.13
2019-04-20T11:13:17.119Z,4.60
2019-04-20T11:15:50.652Z,5.17
2019-04-20T11:18:23.019Z,5.60
2019-04-20T11:20:57.528Z,4.83
2019-04-20T11:23:32.003Z,4.50
2019-04-20T11:26:04.425Z,4.70
2019-04-20T11:28:39.988Z,4.50
2019-04-20T11:31:14.303Z,4.63
2019-04-20T11:33:48.053Z,5.23
2019-04-20T11:36:21.244Z,5.03
2019-04-20T11:38:54.405Z,5.30
2019-04-20T11:41:29.473Z,5.30
2019-04-20T11:44:01.902Z,4.50
2019-04-20T11:46:34.542Z,4.93
2019-04-20T11:49:07.878Z,5.03
2019-04-20T11:51:41.448Z,4.60
2019-04-20T11:54:14.599Z,5.57
2019-04-20T11:56:47.340Z,5.17
2019-04-20T11:59:21.090Z,4.47
2019-04-20T12:02:15.828Z,5.00
2019-04-20T12:04:59.785Z,4.57
2019-04-20T12:07:24.899Z,4.07
2019-04-20T12:10:05.582Z,3.70
2019-04-20T12:12:40.046Z,4.77
2019-04-20T12:15:06.491Z,4.60
2019-04-20T12:17:39.713Z,3.93
2019-04-20T12:20:12.512Z,4.43
2019-04-20T12:22:46.201Z,4.77
2019-04-20T12:25:25.950Z,4.67
2019-04-20T12:28:01.848Z,4.20
2019-04-20T12:30:33.480Z,4.07
2019-04-20T12:33:07.461Z,4.80
2019-04-20T12:35:42.542Z,4.50
2019-04-20T12:38:17.192Z,4.53
2019-04-20T12:40:50.361Z,4.93
2019-04-20T12:43:23.624Z,4.53
2019-04-20T12:45:55.946Z,4.10
2019-04-20T12:48:29.310Z,3.80
2019-04-20T12:51:03.444Z,4.90
2019-04-20T12:53:35.746Z,4.30
2019-04-20T12:56:08.616Z,4.70
2019-04-20T12:58:43.403Z,3.50
2019-04-20T13:01:17.700Z,3.80
2019-04-20T13:03:49.849Z,3.93
2019-04-20T13:06:23.789Z,4.50
2019-04-20T13:08:58.894Z,3.60
2019-04-20T13:11:46.297Z,4.43
2019-04-20T13:15:22.281Z,4.47
2019-04-20T13:17:54.829Z,4.57
2019-04-20T13:20:28.042Z,4.43
2019-04-20T13:23:02.698Z,3.33
2019-04-20T13:25:35.117Z,4.33
2019-04-20T13:28:07.429Z,4.57
2019-04-20T13:30:39.967Z,3.87
2019-04-20T13:33:13.884Z,4.17
2019-04-20T13:35:48.091Z,4.27
2019-04-20T13:38:20.387Z,4.37
2019-04-20T13:40:53.657Z,4.00
2019-04-20T13:43:27.868Z,3.83
2019-04-20T13:46:01.087Z,4.37
2019-04-20T13:48:34.806Z,4.57
2019-04-20T13:51:08.140Z,4.30
2019-04-20T13:53:41.294Z,3.77
2019-04-20T13:56:16.138Z,4.33
2019-04-20T13:59:14.113Z,3.70
2019-04-20T14:02:04.728Z,3.60
2019-04-20T14:04:41.001Z,4.23
2019-04-20T14:07:15.420Z,4.30
2019-04-20T14:09:47.805Z,3.97
2019-04-20T14:12:27.520Z,4.33
2019-04-20T14:14:55.251Z,3.70
2019-04-20T14:17:29.006Z,3.67
2019-04-20T14:20:07.427Z,3.20
2019-04-20T14:22:36.874Z,3.97
2019-04-20T14:25:09.528Z,3.00
2019-04-20T14:27:42.657Z,3.30
2019-04-20T14:30:15.246Z,3.33
2019-04-20T14:32:48.177Z,3.27
2019-04-20T14:35:20.802Z,3.90
2019-04-20T14:37:54.013Z,3.47
2019-04-20T14:40:26.611Z,3.23
2019-04-20T14:43:00.163Z,4.10
2019-04-20T14:45:32.730Z,3.70
2019-04-20T14:48:05.780Z,4.00
2019-04-20T14:50:38.072Z,3.63
2019-04-20T14:53:11.692Z,4.20
2019-04-20T14:55:44.224Z,3.63
2019-04-20T14:58:37.578Z,3.70
2019-04-20T15:01:26.959Z,3.90
2019-04-20T15:04:04.811Z,3.10
2019-04-20T15:06:36.691Z,3.10
2019-04-20T15:09:10.760Z,3.27
2019-04-20T15:11:45.141Z,3.60
2019-04-20T15:14:18.682Z,3.50
2019-04-20T15:16:51.326Z,3.07
2019-04-20T15:19:41.374Z,3.37
2019-04-20T15:22:51.660Z,3.37
2019-04-20T15:25:25.438Z,3.43
2019-04-20T15:27:58.323Z,3.40
2019-04-20T15:30:31.940Z,3.20
2019-04-20T15:33:05.162Z,3.77
2019-04-20T15:35:37.863Z,3.87
2019-04-20T15:38:11.228Z,3.23
2019-04-20T15:40:44.876Z,3.30
2019-04-20T15:43:20.832Z,3.50
2019-04-20T15:45:51.645Z,3.20
2019-04-20T15:48:24.152Z,3.13
2019-04-20T15:50:56.295Z,3.07
2019-04-20T15:53:29.442Z,3.37
2019-04-20T15:56:05.029Z,2.50
2019-04-20T15:58:36.630Z,2.93
2019-04-20T16:01:10.392Z,3.30
2019-04-20T16:03:48.027Z,3.37
2019-04-20T16:06:21.221Z,3.70
2019-04-20T16:08:56.458Z,3.10
2019-04-20T16:11:29.188Z,3.50
2019-04-20T16:14:03.145Z,3.67
2019-04-20T16:16:35.001Z,3.50
2019-04-20T16:19:14.714Z,3.07
2019-04-20T16:21:41.616Z,2.87
2019-04-20T16:24:16.951Z,3.00
2019-04-20T16:27:25.749Z,3.30
2019-04-20T16:29:58.189Z,3.23
2019-04-20T16:32:30.511Z,2.77
2019-04-20T16:35:08.726Z,3.03
2019-04-20T16:37:42.460Z,2.90
2019-04-20T16:40:15.671Z,2.90
2019-04-20T16:42:48.445Z,2.43
2019-04-20T16:45:21.317Z,3.03
2019-04-20T16:47:54.490Z,2.93
2019-04-20T16:50:27.141Z,3.07
2019-04-20T16:53:01.144Z,2.90
2019-04-20T16:55:34.738Z,2.73
2019-04-20T16:58:08.128Z,2.97
2019-04-20T17:00:41.234Z,2.87
2019-04-20T17:03:15.328Z,3.80
2019-04-20T17:05:51.032Z,3.23
2019-04-20T17:08:22.916Z,3.10
2019-04-20T17:10:55.943Z,3.03
2019-04-20T17:13:37.933Z,2.50
2019-04-20T17:16:04.157Z,2.30
2019-04-20T17:18:37.479Z,3.00
2019-04-20T17:21:16.618Z,2.43
2019-04-20T17:23:46.915Z,2.63
2019-04-20T17:26:29.649Z,3.00
2019-04-20T17:29:16.008Z,3.17
2019-04-20T17:32:13.725Z,2.70
2019-04-20T17:35:01.950Z,2.50
2019-04-20T17:37:22.656Z,2.20
2019-04-20T17:40:10.984Z,2.80
2019-04-20T17:42:41.292Z,2.50
2019-04-20T17:45:11.384Z,2.30
2019-04-20T17:47:58.300Z,2.20
2019-04-20T17:50:34.856Z,2.80
2019-04-20T17:53:03.598Z,2.50
2019-04-20T17:55:36.924Z,2.57
2019-04-20T17:58:05.708Z,2.40
2019-04-20T18:00:57.768Z,2.00
2019-04-20T18:04:04.564Z,2.67
2019-04-20T18:06:19.979Z,2.30
2019-04-20T18:08:54.404Z,2.40
2019-04-20T18:11:18.424Z,2.50
2019-04-20T18:13:49.567Z,2.30
2019-04-20T18:16:46.972Z,3.20
2019-04-20T18:19:16.021Z,2.97
2019-04-20T18:21:58.069Z,2.47
2019-04-20T18:25:00.220Z,2.20
2019-04-20T18:27:28.918Z,2.67
2019-04-20T18:29:59.890Z,2.43
2019-04-20T18:32:29.540Z,2.63
2019-04-20T18:35:08.389Z,4.13
2019-04-20T18:37:44.209Z,6.90
2019-04-20T18:40:24.689Z,5.37
2019-04-20T18:42:59.701Z,4.30
2019-04-20T18:45:39.711Z,4.30
2019-04-20T18:48:16.395Z,4.10
2019-04-20T18:50:38.696Z,4.03
2019-04-20T18:53:14.658Z,3.10
2019-04-20T18:55:47.027Z,2.43
2019-04-20T18:58:15.269Z,2.90
2019-04-20T19:00:51.700Z,2.37
2019-04-20T19:03:28.977Z,2.60
2019-04-20T19:05:56.406Z,2.77
2019-04-20T19:08:35.232Z,3.03
2019-04-20T19:11:09.222Z,2.73
2019-04-20T19:13:56.421Z,3.10
2019-04-20T19:16:50.594Z,3.13
2019-04-20T19:19:27.729Z,3.73
2019-04-20T19:21:54.180Z,3.03
2019-04-20T19:24:29.302Z,3.83
2019-04-20T19:27:05.089Z,4.00
2019-04-20T19:29:43.006Z,3.93
2019-04-20T19:32:27.736Z,3.43
2019-04-20T19:34:54.950Z,3.20
2019-04-20T19:37:26.120Z,2.73
2019-04-20T19:40:05.603Z,3.50
2019-04-20T19:42:39.783Z,4.63
2019-04-20T19:45:27.439Z,3.80
2019-04-20T19:47:51.354Z,3.63
2019-04-20T19:50:35.298Z,3.53
2019-04-20T19:53:18.366Z,3.70
2019-04-20T19:55:41.164Z,3.20
2019-04-20T19:58:13.919Z,3.00
2019-04-20T20:01:00.969Z,3.30
2019-04-20T20:03:33.394Z,2.77
2019-04-20T20:06:06.157Z,3.83
2019-04-20T20:08:40.454Z,3.00
2019-04-20T20:11:18.507Z,3.30
2019-04-20T20:13:52.158Z,3.00
2019-04-20T20:16:30.277Z,2.70
2019-04-20T20:19:05.967Z,4.10
2019-04-20T20:21:46.482Z,3.03
2019-04-20T20:24:06.065Z,3.90
2019-04-20T20:26:45.810Z,3.30
2019-04-20T20:29:22.882Z,3.93
2019-04-20T20:32:01.986Z,3.63
2019-04-20T20:34:31.021Z,3.57
2019-04-20T20:37:03.195Z,3.50
2019-04-20T20:39:36.246Z,3.37
2019-04-20T20:42:20.204Z,3.87
2019-04-20T20:44:50.608Z,3.50
2019-04-20T20:47:39.747Z,4.10
2019-04-20T20:50:13.031Z,4.27
2019-04-20T20:52:36.848Z,4.00
2019-04-20T20:55:06.489Z,3.00
2019-04-20T20:57:44.994Z,3.53
2019-04-20T21:00:22.679Z,3.23
2019-04-20T21:02:52.626Z,3.63
2019-04-20T21:05:17.706Z,3.40
2019-04-20T21:07:51.328Z,3.43
2019-04-20T21:10:30.031Z,3.70
2019-04-20T21:13:01.796Z,3.37
2019-04-20T21:15:31.599Z,3.63
2019-04-20T21:18:27.471Z,3.73
2019-04-20T21:20:54.055Z,3.50
2019-04-20T21:23:28.104Z,3.13
2019-04-20T21:26:21.773Z,4.00
2019-04-20T21:28:48.002Z,3.97
2019-04-20T21:31:24.386Z,4.13
2019-04-20T21:33:55.191Z,3.57
2019-04-20T21:36:29.995Z,5.30
2019-04-20T21:39:01.800Z,4.37
2019-04-20T21:41:35.721Z,4.93
2019-04-20T21:44:16.947Z,3.90
2019-04-20T21:46:48.798Z,4.33
2019-04-20T21:49:30.711Z,4.80
2019-04-20T21:51:57.495Z,4.33
2019-04-20T21:54:25.240Z,4.13
2019-04-20T21:57:03.168Z,3.70
2019-04-20T21:59:38.603Z,3.70
2019-04-20T22:02:16.697Z,3.20
2019-04-20T22:04:41.087Z,2.83
2019-04-20T22:07:14.409Z,4.10
2019-04-20T22:09:51.629Z,4.90
2019-04-20T22:12:21.397Z,4.53
2019-04-20T22:14:59.002Z,4.93
2019-04-20T22:17:32.170Z,5.17
2019-04-20T22:20:11.865Z,5.07
2019-04-20T22:22:53.866Z,5.60
2019-04-20T22:25:28.322Z,4.30
2019-04-20T22:27:44.284Z,4.83
2019-04-20T22:30:17.819Z,5.00
2019-04-20T22:32:51.654Z,5.07
2019-04-20T22:35:24.391Z,4.80
2019-04-20T22:38:15.834Z,4.77
2019-04-20T22:40:47.228Z,4.90
2019-04-20T22:43:25.916Z,5.20
2019-04-20T22:45:55.304Z,5.03
2019-04-20T22:48:27.570Z,4.80
2019-04-20T22:51:19.684Z,4.63
2019-04-20T22:53:47.395Z,4.47
2019-04-20T22:56:25.647Z,4.77
2019-04-20T22:58:54.177Z,4.37
2019-04-20T23:01:27.756Z,4.50
2019-04-20T23:03:50.685Z,4.40
2019-04-20T23:06:25.375Z,4.77
2019-04-20T23:09:01.095Z,4.87
2019-04-20T23:11:33.591Z,4.50
2019-04-20T23:14:06.527Z,4.33
2019-04-20T23:16:43.934Z,4.83
2019-04-20T23:19:14.074Z,5.03
2019-04-20T23:21:52.754Z,5.00
2019-04-20T23:24:21.940Z,4.67
2019-04-20T23:26:55.310Z,4.50
2019-04-20T23:29:32.706Z,5.00
2019-04-20T23:32:06.514Z,4.23
2019-04-20T23:34:37.705Z,4.53
2019-04-20T23:37:16.137Z,4.80
2019-04-20T23:39:47.256Z,4.70
2019-04-20T23:42:21.995Z,4.40
2019-04-20T23:45:29.031Z,4.77
2019-04-20T23:48:05.319Z,4.63
2019-04-20T23:50:54.394Z,4.73
2019-04-20T23:53:33.876Z,4.90
2019-04-20T23:55:49.920Z,4.60
2019-04-20T23:58:22.040Z,4.67
